Time;durP1;ratioP1;P1;durP2;ratioP2;P2;SDS_P1;SDS_P2;PMS_P1;PMS_P2;Temp;Humidity;BMP_temperature;BMP_pressure;BME280_temperature;BME280_humidity;BME280_pressure;Samples;Min_cycle;Max_cycle;Signal;HPM_P1;HPM_P2
2022/02/06 00:01:49;;;;;;;6.97;2.83;;;5.90;78.90;;;;;;5117827;28;20435;-47
2022/02/06 00:04:15;;;;;;;4.53;1.80;;;5.80;79.20;;;;;;5117720;28;20433;-47
2022/02/06 00:06:41;;;;;;;5.77;2.77;;;5.80;79.60;;;;;;5117512;28;20196;-47
2022/02/06 00:09:07;;;;;;;8.83;2.13;;;5.70;79.80;;;;;;5118596;28;20417;-47
2022/02/06 00:11:32;;;;;;;3.87;2.03;;;5.60;80.10;;;;;;5116179;28;20242;-47
2022/02/06 00:13:58;;;;;;;4.80;2.00;;;5.60;80.20;;;;;;5117177;28;20627;-47
2022/02/06 00:16:24;;;;;;;3.00;1.73;;;5.50;80.20;;;;;;5117274;28;20200;-47
2022/02/06 00:18:51;;;;;;;4.67;2.27;;;5.40;80.30;;;;;;5118196;28;20448;-47
2022/02/06 00:21:18;;;;;;;3.27;1.87;;;5.40;80.40;;;;;;5116462;28;20433;-47
2022/02/06 00:23:47;;;;;;;7.83;3.07;;;5.40;80.60;;;;;;5118589;28;20168;-47
2022/02/06 00:31:52;;;;;;;3.17;1.73;;;5.30;80.50;;;;;;5062513;28;20484;-46
2022/02/06 00:39:36;;;;;;;3.57;2.23;;;5.20;81.00;;;;;;5114498;28;20565;-47
2022/02/06 00:42:11;;;;;;;4.80;1.90;;;5.20;81.10;;;;;;5116208;28;20414;-47
2022/02/06 00:44:37;;;;;;;5.20;1.87;;;5.20;81.10;;;;;;5114275;28;20542;-47
2022/02/06 00:47:03;;;;;;;4.43;1.97;;;5.20;81.20;;;;;;5116202;28;20417;-47
2022/02/06 00:49:40;;;;;;;3.10;1.70;;;5.20;81.20;;;;;;5115172;28;20173;-47
2022/02/06 00:52:11;;;;;;;8.13;2.00;;;5.10;81.20;;;;;;5116628;28;20461;-47
2022/02/06 00:54:37;;;;;;;8.33;2.80;;;5.10;81.20;;;;;;5098808;28;20552;-47
2022/02/06 00:57:03;;;;;;;5.77;1.77;;;5.20;81.20;;;;;;5118237;28;20457;-47
2022/02/06 00:59:28;;;;;;;9.93;2.10;;;5.20;81.20;;;;;;5115508;28;20603;-47
2022/02/06 01:01:54;;;;;;;2.83;1.63;;;5.10;81.20;;;;;;5116664;28;20418;-47
2022/02/06 01:04:20;;;;;;;5.97;2.60;;;5.10;81.20;;;;;;5115238;28;20541;-47
2022/02/06 01:06:47;;;;;;;3.30;2.30;;;5.10;81.40;;;;;;5113577;28;20435;-47
2022/02/06 01:09:13;;;;;;;5.07;2.10;;;5.10;81.50;;;;;;5115584;28;20175;-47
2022/02/06 01:11:39;;;;;;;5.10;2.43;;;5.10;81.60;;;;;;5114738;28;21053;-38
2022/02/06 01:19:23;;;;;;;4.30;1.93;;;5.00;81.80;;;;;;5116833;28;20409;-37
2022/02/06 01:22:03;;;;;;;4.03;2.03;;;5.00;81.90;;;;;;5097744;28;20842;-39
2022/02/06 01:27:18;;;;;;;4.47;2.10;;;5.00;82.20;;;;;;5119003;28;20901;-39
2022/02/06 01:29:56;;;;;;;4.70;2.33;;;5.00;82.20;;;;;;5121713;28;20433;-38
2022/02/06 01:32:29;;;;;;;6.87;2.07;;;5.00;82.20;;;;;;5122426;28;20912;-39
2022/02/06 01:35:10;;;;;;;4.77;2.37;;;5.00;82.30;;;;;;5115492;28;20437;-36
2022/02/06 01:37:43;;;;;;;3.57;2.10;;;5.00;82.50;;;;;;5109556;28;20434;-39
2022/02/06 01:40:30;;;;;;;6.87;2.20;;;5.00;82.70;;;;;;5102701;28;20462;-39
2022/02/06 01:43:04;;;;;;;5.33;1.93;;;5.00;82.60;;;;;;5100214;28;20411;-38
2022/02/06 02:13:29;;;;;;;4.30;1.80;;;4.90;82.90;;;;;;5099448;28;20473;-47
2022/02/06 02:30:04;;;;;;;2.30;1.43;;;5.00;82.90;;;;;;5100261;28;20426;-47
2022/02/06 02:46:37;;;;;;;4.20;2.17;;;5.00;83.00;;;;;;5098920;28;20426;-47
2022/02/06 02:49:05;;;;;;;6.20;1.73;;;5.00;82.90;;;;;;5100280;28;20431;-47
2022/02/06 02:51:36;;;;;;;5.00;2.30;;;4.90;83.00;;;;;;5098357;28;20485;-47
2022/02/06 02:54:08;;;;;;;4.30;2.17;;;5.00;83.10;;;;;;5100450;28;20441;-47
2022/02/06 02:56:46;;;;;;;2.60;1.97;;;4.90;83.10;;;;;;5100183;28;20430;-47
2022/02/06 02:59:26;;;;;;;6.97;2.03;;;4.90;83.40;;;;;;5099261;28;20433;-47
2022/02/06 03:01:57;;;;;;;3.77;1.60;;;4.90;83.40;;;;;;5098438;28;20838;-47
2022/02/06 03:04:23;;;;;;;4.00;2.07;;;4.80;83.30;;;;;;5099389;28;20426;-47
2022/02/06 03:06:49;;;;;;;4.13;1.70;;;4.90;83.50;;;;;;5098101;28;20418;-47
2022/02/06 03:09:15;;;;;;;2.10;1.40;;;4.90;83.50;;;;;;5098494;28;20193;-48
2022/02/06 03:11:41;;;;;;;4.00;1.37;;;4.90;83.60;;;;;;5096799;28;20535;-47
2022/02/06 03:14:27;;;;;;;2.70;1.57;;;4.90;83.50;;;;;;5098557;28;20434;-47
2022/02/06 03:17:03;;;;;;;3.90;1.87;;;4.90;83.50;;;;;;5097884;28;20203;-47
2022/02/06 03:19:39;;;;;;;2.70;1.33;;;4.90;83.60;;;;;;5099780;28;20418;-47
2022/02/06 03:22:05;;;;;;;3.40;1.67;;;4.90;83.60;;;;;;5081988;28;20430;-47
2022/02/06 03:24:39;;;;;;;5.23;1.57;;;4.90;83.60;;;;;;5098189;28;20446;-47
2022/02/06 03:27:05;;;;;;;2.50;1.63;;;4.90;83.50;;;;;;5099835;28;20418;-47
2022/02/06 03:29:31;;;;;;;4.13;1.40;;;4.90;83.80;;;;;;5098373;28;20418;-47
2022/02/06 03:31:56;;;;;;;3.07;1.60;;;4.90;83.80;;;;;;5099440;28;20239;-47
2022/02/06 03:34:22;;;;;;;4.77;1.43;;;4.90;83.90;;;;;;5098762;28;20528;-47
2022/02/06 03:36:47;;;;;;;2.20;1.50;;;4.90;84.10;;;;;;5099529;28;20192;-47
2022/02/06 03:39:16;;;;;;;5.70;1.43;;;4.90;84.10;;;;;;5098224;28;20173;-48
2022/02/06 03:44:50;;;;;;;2.47;1.47;;;4.90;84.10;;;;;;5098391;28;20429;-38
2022/02/06 03:47:22;;;;;;;2.93;1.33;;;4.90;84.00;;;;;;5099326;28;20419;-38
2022/02/06 03:52:15;;;;;;;4.40;1.60;;;4.90;83.50;;;;;;5098338;28;20462;-39
2022/02/06 03:54:41;;;;;;;7.33;1.20;;;4.90;83.30;;;;;;5099525;28;20411;-38
2022/02/06 03:57:07;;;;;;;4.00;1.57;;;5.00;83.20;;;;;;5098487;28;20423;-38
2022/02/06 03:59:35;;;;;;;6.27;1.57;;;5.00;83.10;;;;;;5098949;28;20188;-38
2022/02/06 04:02:02;;;;;;;4.97;1.50;;;5.00;83.00;;;;;;5097099;28;20426;-38
2022/02/06 04:04:27;;;;;;;4.13;1.80;;;5.10;83.10;;;;;;5099489;28;20422;-37
2022/02/06 04:06:53;;;;;;;3.43;1.80;;;5.00;83.10;;;;;;5097698;28;20428;-38
2022/02/06 04:09:30;;;;;;;3.93;1.47;;;5.10;83.20;;;;;;5098961;28;20208;-38
2022/02/06 04:11:57;;;;;;;4.60;1.73;;;5.10;83.10;;;;;;5097209;28;20485;-39
2022/02/06 04:14:27;;;;;;;6.17;2.03;;;5.10;83.10;;;;;;5099034;28;20767;-39
2022/02/06 04:16:56;;;;;;;3.87;1.97;;;5.10;83.20;;;;;;5098954;28;20448;-36
2022/02/06 04:19:25;;;;;;;4.37;1.40;;;5.10;83.10;;;;;;5097394;28;20419;-35
2022/02/06 04:21:55;;;;;;;5.03;1.80;;;5.10;83.10;;;;;;5113388;28;20435;-38
2022/02/06 04:24:20;;;;;;;3.80;1.70;;;5.10;83.10;;;;;;5099150;28;20422;-37
2022/02/06 04:26:46;;;;;;;3.10;1.63;;;5.10;83.10;;;;;;5097477;28;20431;-39
2022/02/06 04:29:12;;;;;;;3.43;1.43;;;5.10;83.10;;;;;;5098912;28;20576;-39
2022/02/06 04:31:40;;;;;;;4.70;1.73;;;5.10;83.10;;;;;;5097522;28;20480;-37
2022/02/06 04:34:06;;;;;;;2.13;1.73;;;5.20;83.10;;;;;;5080593;28;20272;-39
2022/02/06 04:37:02;;;;;;;3.60;1.87;;;5.20;83.10;;;;;;5097301;28;20416;-38
2022/02/06 05:12:36;;;;;;;5.93;1.63;;;5.10;85.30;;;;;;5095999;28;20478;-43
2022/02/06 05:14:47;;;;;;;5.20;1.70;;;5.00;85.30;;;;;;5097809;28;20848;-41
2022/02/06 05:22:36;;;;;;;3.80;1.80;;;5.10;85.40;;;;;;5096739;28;20426;-43
2022/02/06 05:30:18;;;;;;;6.17;1.70;;;5.00;85.50;;;;;;5117262;28;20418;-43
2022/02/06 05:32:59;;;;;;;6.33;1.47;;;5.00;85.40;;;;;;5116423;28;20749;-45
2022/02/06 05:35:25;;;;;;;1.87;1.43;;;5.10;85.50;;;;;;5117638;28;20443;-43
2022/02/06 05:37:51;;;;;;;3.97;1.97;;;5.00;85.50;;;;;;5117199;28;20413;-44
2022/02/06 05:40:16;;;;;;;4.93;2.13;;;5.10;85.60;;;;;;5118751;28;20570;-44
2022/02/06 05:42:43;;;;;;;8.40;2.20;;;5.10;85.60;;;;;;5117458;28;20556;-44
2022/02/06 05:45:10;;;;;;;6.70;1.87;;;5.00;85.70;;;;;;5100778;28;20468;-42
2022/02/06 05:47:35;;;;;;;4.30;1.77;;;5.10;85.80;;;;;;5117222;28;21590;-42
2022/02/06 05:50:03;;;;;;;3.60;1.40;;;5.00;85.80;;;;;;5118641;28;20829;-42
2022/02/06 05:52:28;;;;;;;5.80;1.80;;;5.00;85.90;;;;;;5116061;28;20284;-42
2022/02/06 05:54:54;;;;;;;4.07;1.37;;;5.00;86.10;;;;;;5100226;28;20815;-42
2022/02/06 05:57:22;;;;;;;5.63;2.67;;;5.00;86.00;;;;;;5098985;28;20180;-43
2022/02/06 05:59:47;;;;;;;5.87;2.10;;;5.00;86.30;;;;;;5118017;28;20176;-42
2022/02/06 06:02:13;;;;;;;4.00;1.47;;;4.90;86.50;;;;;;5117633;28;20421;-42
2022/02/06 06:04:39;;;;;;;4.40;1.50;;;4.90;87.40;;;;;;5116779;28;20596;-42
2022/02/06 06:07:05;;;;;;;11.50;2.73;;;4.90;87.00;;;;;;5117505;28;20827;-42
2022/02/06 06:09:31;;;;;;;5.50;2.00;;;4.80;87.10;;;;;;5116476;28;20185;-42
2022/02/06 06:11:56;;;;;;;2.10;1.20;;;4.80;87.10;;;;;;5099878;28;20480;-42
2022/02/06 06:14:28;;;;;;;3.20;1.57;;;4.90;87.00;;;;;;5119452;28;20429;-43
2022/02/06 06:16:54;;;;;;;3.80;1.80;;;4.90;86.90;;;;;;5121829;28;20168;-42
2022/02/06 06:19:19;;;;;;;4.50;1.53;;;5.00;86.90;;;;;;5120470;28;20727;-42
2022/02/06 06:21:47;;;;;;;5.60;1.57;;;5.00;86.90;;;;;;5121001;28;20472;-43
2022/02/06 06:24:17;;;;;;;3.03;1.43;;;5.00;86.70;;;;;;5120569;28;20256;-41
2022/02/06 06:26:43;;;;;;;4.80;2.00;;;5.00;86.90;;;;;;5121441;28;20883;-44
2022/02/06 06:29:08;;;;;;;6.13;1.77;;;5.10;87.00;;;;;;5119705;28;20583;-41
2022/02/06 06:31:34;;;;;;;6.50;1.83;;;5.10;86.80;;;;;;5120655;28;20234;-43
2022/02/06 06:33:59;;;;;;;3.70;1.50;;;5.10;86.70;;;;;;5119421;28;20558;-42
2022/02/06 06:36:26;;;;;;;3.27;1.70;;;5.20;86.80;;;;;;5120680;28;20182;-42
2022/02/06 06:38:54;;;;;;;3.00;1.90;;;5.20;86.70;;;;;;5119385;28;20229;-42
2022/02/06 06:41:20;;;;;;;3.53;1.80;;;5.20;86.80;;;;;;5120712;28;20427;-42
2022/02/06 06:43:45;;;;;;;3.00;1.83;;;5.20;87.50;;;;;;5119578;28;20418;-43
2022/02/06 06:46:11;;;;;;;5.57;2.10;;;5.20;86.80;;;;;;5121600;28;20904;-42
2022/02/06 06:48:37;;;;;;;5.10;2.17;;;5.30;86.80;;;;;;5119487;28;20168;-43
2022/02/06 06:51:03;;;;;;;6.30;1.90;;;5.20;86.80;;;;;;5120521;28;20476;-43
2022/02/06 06:53:29;;;;;;;4.03;1.50;;;5.20;86.80;;;;;;5120439;28;20172;-42
2022/02/06 06:56:00;;;;;;;6.93;1.90;;;5.20;86.80;;;;;;5120665;28;20176;-42
2022/02/06 06:58:29;;;;;;;3.40;1.77;;;5.30;86.80;;;;;;5120966;28;20444;-42
2022/02/06 07:03:35;;;;;;;2.13;1.23;;;5.30;86.40;;;;;;5119824;28;20824;-42
2022/02/06 07:06:01;;;;;;;6.23;1.67;;;5.40;86.40;;;;;;5118203;28;20425;-40
2022/02/06 07:08:27;;;;;;;3.80;1.90;;;5.40;86.20;;;;;;5119606;28;20816;-41
2022/02/06 07:10:52;;;;;;;5.87;2.10;;;5.40;86.30;;;;;;5118060;28;20515;-40
2022/02/06 07:13:21;;;;;;;3.73;1.80;;;5.40;86.40;;;;;;5119678;28;20252;-41
2022/02/06 07:15:47;;;;;;;9.43;2.47;;;5.40;86.30;;;;;;5118464;28;20532;-41
2022/02/06 07:18:13;;;;;;;5.30;1.50;;;5.40;86.20;;;;;;5120461;28;20475;-41
2022/02/06 07:20:39;;;;;;;4.77;2.10;;;5.50;87.10;;;;;;5118829;28;20421;-41
2022/02/06 07:23:07;;;;;;;6.87;2.20;;;5.50;86.40;;;;;;5120194;28;20448;-40
2022/02/06 07:25:33;;;;;;;3.60;1.57;;;5.50;86.20;;;;;;5118167;28;20839;-41
2022/02/06 07:27:59;;;;;;;2.97;1.43;;;5.50;86.10;;;;;;5119682;28;20432;-42
2022/02/06 07:30:26;;;;;;;4.00;1.67;;;5.60;86.00;;;;;;5119305;28;20414;-41
2022/02/06 07:32:52;;;;;;;3.57;1.80;;;5.70;85.90;;;;;;5119397;28;20454;-43
2022/02/06 07:35:17;;;;;;;8.00;1.87;;;5.70;85.70;;;;;;5118431;28;20429;-42
2022/02/06 07:37:55;;;;;;;3.60;1.67;;;5.80;85.60;;;;;;5119352;28;20176;-42
2022/02/06 07:40:23;;;;;;;4.97;1.80;;;5.80;85.60;;;;;;5101359;28;20256;-42
2022/02/06 07:42:48;;;;;;;6.10;1.50;;;5.90;85.70;;;;;;5101062;28;20426;-42
2022/02/06 07:45:15;;;;;;;7.63;2.40;;;5.90;85.60;;;;;;5099680;28;20483;-43
2022/02/06 07:47:45;;;;;;;5.80;2.40;;;5.90;85.70;;;;;;5118817;28;20422;-43
2022/02/06 07:50:12;;;;;;;5.90;2.30;;;6.00;85.60;;;;;;5082612;28;20434;-42
2022/02/06 07:52:38;;;;;;;8.10;2.07;;;6.00;85.30;;;;;;5118829;28;20495;-42
2022/02/06 07:55:06;;;;;;;5.43;1.67;;;6.10;85.30;;;;;;5117729;28;20418;-42
2022/02/06 07:57:32;;;;;;;7.43;2.73;;;6.20;85.10;;;;;;5101273;28;20425;-41
2022/02/06 07:59:58;;;;;;;3.47;1.83;;;6.30;84.90;;;;;;5118247;28;20453;-42
2022/02/06 08:02:24;;;;;;;7.60;1.77;;;6.40;84.60;;;;;;5118767;28;20456;-41
2022/02/06 08:04:50;;;;;;;3.57;1.33;;;6.50;84.40;;;;;;5118354;28;20508;-41
2022/02/06 08:07:16;;;;;;;3.40;1.60;;;6.60;84.00;;;;;;5117985;28;20492;-41
2022/02/06 08:09:50;;;;;;;5.23;1.50;;;6.70;83.70;;;;;;5098000;28;20520;-41
2022/02/06 08:12:17;;;;;;;4.27;1.80;;;6.80;83.50;;;;;;5107825;28;20589;-43
2022/02/06 08:14:51;;;;;;;4.83;2.07;;;6.80;83.20;;;;;;5113599;28;20458;-41
2022/02/06 08:17:27;;;;;;;6.43;2.03;;;6.80;83.10;;;;;;5118142;28;20409;-42
2022/02/06 08:19:53;;;;;;;5.20;2.13;;;6.80;82.90;;;;;;5116958;28;20426;-41
2022/02/06 08:22:20;;;;;;;6.10;1.50;;;6.80;82.90;;;;;;5118973;28;20418;-43
2022/02/06 08:24:47;;;;;;;4.20;1.93;;;6.80;82.90;;;;;;5117126;28;20516;-41
2022/02/06 08:27:13;;;;;;;3.23;1.43;;;6.70;82.90;;;;;;5117708;28;20496;-39
2022/02/06 08:29:42;;;;;;;4.60;1.80;;;6.70;82.90;;;;;;5117033;28;20760;-41
2022/02/06 08:32:08;;;;;;;5.17;1.80;;;6.70;82.80;;;;;;5114746;28;20458;-41
2022/02/06 08:34:34;;;;;;;3.63;1.60;;;6.80;82.80;;;;;;5116660;28;20406;-41
2022/02/06 08:37:02;;;;;;;3.93;1.70;;;6.80;82.70;;;;;;5115237;28;20434;-41
2022/02/06 08:39:29;;;;;;;6.73;2.03;;;6.80;82.60;;;;;;5117118;28;20820;-41
2022/02/06 08:41:55;;;;;;;4.63;2.03;;;6.90;82.60;;;;;;5115483;28;20418;-42
2022/02/06 08:44:21;;;;;;;3.53;1.50;;;6.90;82.30;;;;;;5099084;28;20595;-42
2022/02/06 08:46:47;;;;;;;6.77;1.77;;;7.00;82.20;;;;;;5116057;28;20175;-42
2022/02/06 08:49:14;;;;;;;2.13;1.07;;;7.10;82.00;;;;;;5115929;28;20233;-42
2022/02/06 08:51:40;;;;;;;6.97;1.60;;;7.30;81.70;;;;;;5116486;28;20461;-43
2022/02/06 08:54:05;;;;;;;3.03;1.60;;;7.50;81.30;;;;;;5097132;28;20430;-42
2022/02/06 08:56:33;;;;;;;12.60;2.87;;;7.60;80.30;;;;;;5116599;28;20172;-40
2022/02/06 08:58:59;;;;;;;4.13;1.67;;;7.50;80.00;;;;;;5113585;28;20172;-41
2022/02/06 09:01:25;;;;;;;3.33;1.73;;;7.50;80.10;;;;;;5116918;28;20428;-39
2022/02/06 09:03:50;;;;;;;4.50;1.90;;;7.60;80.00;;;;;;5115332;28;20325;-40
2022/02/06 09:06:16;;;;;;;2.50;1.37;;;7.70;79.70;;;;;;5117578;28;20179;-39
2022/02/06 09:08:42;;;;;;;2.10;1.30;;;7.80;79.10;;;;;;5098954;28;20270;-39
2022/02/06 09:11:08;;;;;;;2.97;1.40;;;7.80;78.40;;;;;;5116110;28;20318;-42
2022/02/06 09:13:33;;;;;;;2.30;1.53;;;7.80;78.60;;;;;;5118144;28;20448;-43
2022/02/06 09:15:59;;;;;;;2.80;1.63;;;7.70;78.40;;;;;;5117352;28;20171;-43
2022/02/06 09:18:24;;;;;;;4.43;1.40;;;7.60;78.60;;;;;;5117551;28;20232;-43
2022/02/06 09:20:50;;;;;;;3.60;1.87;;;7.60;79.20;;;;;;5114995;28;20212;-43
2022/02/06 09:23:16;;;;;;;2.90;1.70;;;7.60;79.30;;;;;;5117232;28;20213;-43
2022/02/06 09:25:41;;;;;;;7.63;1.87;;;7.50;79.50;;;;;;5115799;28;20286;-42
2022/02/06 09:28:07;;;;;;;4.90;1.70;;;7.50;79.70;;;;;;5117915;28;20191;-42
2022/02/06 09:30:32;;;;;;;5.30;1.67;;;7.50;79.60;;;;;;5116778;28;20258;-44
2022/02/06 09:35:23;;;;;;;3.50;1.33;;;7.60;79.80;;;;;;5117824;28;20214;-42
2022/02/06 09:37:50;;;;;;;4.80;1.87;;;7.50;79.80;;;;;;5118170;28;20221;-41
2022/02/06 09:40:16;;;;;;;4.23;1.67;;;7.40;80.20;;;;;;5116590;28;20438;-41
2022/02/06 09:42:45;;;;;;;3.13;1.67;;;7.40;80.70;;;;;;5117420;28;20854;-44
2022/02/06 09:45:11;;;;;;;3.33;1.60;;;7.40;80.90;;;;;;5117296;28;20417;-40
2022/02/06 09:47:37;;;;;;;3.40;1.50;;;7.60;80.90;;;;;;5116620;28;20511;-42
2022/02/06 09:50:03;;;;;;;3.70;1.50;;;7.80;80.50;;;;;;5121605;28;20418;-41
2022/02/06 09:52:29;;;;;;;3.33;2.00;;;8.00;80.10;;;;;;5119843;28;20845;-44
2022/02/06 09:55:06;;;;;;;2.70;1.50;;;8.20;79.70;;;;;;5121323;28;20492;-42
2022/02/06 09:57:41;;;;;;;3.77;1.90;;;8.40;79.20;;;;;;5119176;28;20420;-44
2022/02/06 10:00:09;;;;;;;4.63;1.40;;;8.40;78.50;;;;;;5119841;28;20421;-41
2022/02/06 10:02:36;;;;;;;7.00;1.70;;;8.90;93.80;;;;;;5119330;28;20425;-41
2022/02/06 10:05:03;;;;;;;7.30;2.50;;;10.20;95.20;;;;;;5119399;28;20717;-39
2022/02/06 10:07:42;;;;;;;4.67;2.80;;;10.90;93.20;;;;;;5099939;28;20437;-42
2022/02/06 10:10:10;;;;;;;7.10;2.10;;;11.60;91.10;;;;;;5102365;28;20463;-41
2022/02/06 10:12:42;;;;;;;11.00;2.10;;;12.30;86.30;;;;;;5118359;28;20482;-41
2022/02/06 10:15:13;;;;;;;4.70;1.60;;;12.80;83.10;;;;;;5120132;28;20421;-41
2022/02/06 10:17:39;;;;;;;6.43;1.57;;;13.20;79.70;;;;;;5118997;28;20495;-40
2022/02/06 10:20:28;;;;;;;4.97;1.40;;;13.60;74.10;;;;;;5120713;28;20475;-41
2022/02/06 10:23:00;;;;;;;3.50;1.80;;;12.90;62.50;;;;;;5119597;28;20195;-41
2022/02/06 10:25:26;;;;;;;2.40;1.20;;;12.10;61.70;;;;;;5086686;28;20559;-40
2022/02/06 10:28:10;;;;;;;3.43;1.50;;;11.70;62.70;;;;;;5118410;28;20493;-40
2022/02/06 10:30:40;;;;;;;3.80;1.40;;;11.40;63.50;;;;;;5104366;28;20190;-39
2022/02/06 10:33:41;;;;;;;5.87;1.80;;;11.00;64.50;;;;;;5119721;28;20433;-40
2022/02/06 10:36:07;;;;;;;3.83;1.30;;;10.50;65.40;;;;;;5120360;28;20422;-40
2022/02/06 10:38:33;;;;;;;4.17;1.23;;;10.50;66.50;;;;;;5119177;28;20843;-40
2022/02/06 10:41:07;;;;;;;4.33;1.53;;;10.70;67.30;;;;;;5120576;28;20164;-40
2022/02/06 10:43:35;;;;;;;5.00;1.80;;;10.70;66.40;;;;;;5120714;28;20438;-42
2022/02/06 10:46:12;;;;;;;4.80;1.50;;;10.40;66.40;;;;;;5118627;28;20422;-39
2022/02/06 10:48:50;;;;;;;2.70;1.30;;;10.40;73.90;;;;;;5120223;28;20444;-40
2022/02/06 10:51:34;;;;;;;3.60;1.67;;;11.40;88.50;;;;;;5117428;28;20457;-42
2022/02/06 10:54:00;;;;;;;2.03;1.20;;;12.10;70.70;;;;;;5118995;28;20487;-42
2022/02/06 10:56:26;;;;;;;5.40;1.50;;;12.30;65.90;;;;;;5117562;28;20446;-42
2022/02/06 10:59:02;;;;;;;3.80;1.33;;;12.90;62.60;;;;;;5118675;28;20274;-40
2022/02/06 11:01:30;;;;;;;3.63;1.40;;;13.00;60.60;;;;;;5118695;28;20262;-42
2022/02/06 11:04:14;;;;;;;3.33;1.37;;;12.90;59.40;;;;;;5119309;28;20414;-42
2022/02/06 11:06:53;;;;;;;4.50;1.57;;;12.60;59.20;;;;;;5117657;28;20474;-42
2022/02/06 11:09:24;;;;;;;3.90;1.50;;;12.40;60.10;;;;;;5117913;28;20824;-43
2022/02/06 11:11:50;;;;;;;3.13;1.33;;;11.70;61.00;;;;;;5119086;28;20496;-42
2022/02/06 11:14:21;;;;;;;3.87;1.57;;;11.30;63.00;;;;;;5116903;28;20421;-40
2022/02/06 11:16:49;;;;;;;3.40;1.30;;;10.60;64.30;;;;;;5118896;28;20726;-42
2022/02/06 11:19:17;;;;;;;5.90;1.20;;;10.30;68.80;;;;;;5118423;28;20766;-39
2022/02/06 11:21:43;;;;;;;6.40;1.57;;;10.20;68.50;;;;;;5118295;28;20433;-40
2022/02/06 11:24:20;;;;;;;5.73;1.57;;;9.80;69.60;;;;;;5118231;28;20420;-39
2022/02/06 11:26:47;;;;;;;3.43;1.23;;;9.10;71.00;;;;;;5118033;28;20430;-40
2022/02/06 11:29:14;;;;;;;3.10;1.40;;;8.70;73.30;;;;;;5114965;28;20436;-45
2022/02/06 11:31:40;;;;;;;4.27;1.70;;;8.30;75.70;;;;;;5104703;28;20561;-39
2022/02/06 11:34:09;;;;;;;2.80;1.47;;;8.00;77.10;;;;;;5116995;28;20418;-39
2022/02/06 11:45:33;;;;;;;1.77;1.27;;;7.00;85.00;;;;;;5118639;28;20558;-39
2022/02/06 11:48:05;;;;;;;2.60;1.50;;;6.90;86.40;;;;;;5100742;28;20498;-40
2022/02/06 11:50:33;;;;;;;3.43;1.40;;;6.90;87.30;;;;;;5102180;28;20448;-40
2022/02/06 11:53:04;;;;;;;3.43;1.20;;;6.90;87.60;;;;;;5117137;28;20477;-41
2022/02/06 11:55:37;;;;;;;3.53;1.47;;;6.90;88.00;;;;;;5101261;28;20414;-40
2022/02/06 11:58:31;;;;;;;4.20;1.13;;;6.80;89.20;;;;;;5118229;28;20422;-40
2022/02/06 12:01:07;;;;;;;4.97;1.20;;;6.80;89.30;;;;;;5118075;28;20429;-41
2022/02/06 12:03:50;;;;;;;3.33;1.17;;;6.70;90.00;;;;;;5118267;28;20425;-40
2022/02/06 12:06:16;;;;;;;4.60;1.53;;;6.80;90.40;;;;;;5118800;28;20405;-40
2022/02/06 12:09:05;;;;;;;3.27;1.17;;;6.70;90.90;;;;;;5098799;28;20460;-40
2022/02/06 12:11:31;;;;;;;2.67;1.50;;;6.60;90.70;;;;;;5116870;28;20516;-40
2022/02/06 12:14:13;;;;;;;2.40;1.10;;;6.60;91.70;;;;;;5117895;28;20434;-39
2022/02/06 12:16:50;;;;;;;3.97;1.10;;;6.60;91.10;;;;;;5119308;28;20410;-40
2022/02/06 12:19:30;;;;;;;2.53;0.93;;;6.50;90.90;;;;;;5117833;28;20422;-40
2022/02/06 12:21:56;;;;;;;3.60;1.20;;;6.60;91.40;;;;;;5118490;28;20420;-40
2022/02/06 12:24:41;;;;;;;2.33;1.10;;;6.60;91.50;;;;;;5116464;28;20531;-40
2022/02/06 12:27:29;;;;;;;3.17;1.53;;;6.50;91.40;;;;;;5099621;28;20440;-40
2022/02/06 12:30:19;;;;;;;4.93;1.60;;;6.60;91.50;;;;;;5118107;28;20425;-45
2022/02/06 12:32:49;;;;;;;1.97;0.93;;;6.60;91.00;;;;;;5112404;28;20485;-39
2022/02/06 12:38:00;;;;;;;3.20;1.20;;;6.60;91.10;;;;;;5116381;28;20434;-40
2022/02/06 12:40:29;;;;;;;3.70;1.63;;;6.60;91.00;;;;;;5117713;28;20421;-40
2022/02/06 12:43:02;;;;;;;2.10;1.00;;;6.60;91.10;;;;;;5116570;28;20172;-40
2022/02/06 12:45:29;;;;;;;3.47;1.10;;;6.70;90.90;;;;;;5119116;28;20418;-40
2022/02/06 12:48:00;;;;;;;1.90;1.27;;;6.80;90.50;;;;;;5118132;28;20418;-41
2022/02/06 12:50:32;;;;;;;2.53;0.93;;;6.80;90.50;;;;;;5118329;28;20446;-40
2022/02/06 12:52:58;;;;;;;2.60;1.00;;;6.70;90.50;;;;;;5114711;28;20719;-40
2022/02/06 12:55:28;;;;;;;4.93;1.53;;;6.80;90.50;;;;;;5098821;28;20450;-41
2022/02/06 12:57:55;;;;;;;1.10;0.80;;;6.70;90.60;;;;;;5114911;28;20668;-40
2022/02/06 13:00:24;;;;;;;2.20;1.20;;;6.70;90.80;;;;;;5116673;28;20877;-40
2022/02/06 13:02:51;;;;;;;4.40;1.30;;;6.70;91.30;;;;;;5117144;28;20437;-41
2022/02/06 13:05:20;;;;;;;2.03;0.73;;;6.50;91.20;;;;;;5117640;28;20425;-41
2022/02/06 13:07:45;;;;;;;3.60;0.90;;;6.40;91.70;;;;;;5116659;28;20446;-40
2022/02/06 13:10:12;;;;;;;1.97;0.70;;;6.30;92.30;;;;;;5116235;28;20414;-40
2022/02/06 13:12:50;;;;;;;1.70;0.87;;;6.30;92.50;;;;;;5117058;28;20228;-39
2022/02/06 13:15:40;;;;;;;2.37;0.90;;;6.30;92.70;;;;;;5099755;28;20409;-41
2022/02/06 13:18:58;;;;;;;2.87;1.00;;;6.30;92.90;;;;;;5100204;28;20465;-39
2022/02/06 13:31:00;;;;;;;2.93;1.37;;;6.20;94.30;;;;;;5116006;28;20165;-40
2022/02/06 13:33:46;;;;;;;2.00;0.90;;;6.30;94.30;;;;;;5115558;28;20426;-40
2022/02/06 13:38:51;;;;;;;1.93;0.90;;;6.10;94.20;;;;;;5115756;28;20413;-41
2022/02/06 13:41:19;;;;;;;1.97;0.90;;;6.10;94.70;;;;;;5117144;28;20463;-41
2022/02/06 13:43:48;;;;;;;1.50;0.70;;;6.10;94.80;;;;;;5117616;28;20442;-41
2022/02/06 13:46:18;;;;;;;1.13;0.70;;;6.10;94.90;;;;;;5116459;28;20437;-41
2022/02/06 13:48:48;;;;;;;1.17;0.70;;;6.00;95.00;;;;;;5117331;28;20410;-40
2022/02/06 13:51:15;;;;;;;1.70;0.80;;;5.90;95.30;;;;;;5115784;28;20470;-41
2022/02/06 13:54:03;;;;;;;4.13;1.00;;;5.90;96.00;;;;;;5117605;28;20440;-40
2022/02/06 13:56:30;;;;;;;1.93;0.80;;;5.90;95.60;;;;;;5098718;28;20468;-39
2022/02/06 13:59:05;;;;;;;1.47;0.70;;;5.90;96.00;;;;;;5117036;28;20435;-39
2022/02/06 14:01:43;;;;;;;1.73;0.87;;;5.90;96.10;;;;;;5115503;28;20417;-39
2022/02/06 14:04:34;;;;;;;1.23;0.73;;;5.80;96.40;;;;;;5117660;28;20402;-39
2022/02/06 14:07:13;;;;;;;3.50;1.20;;;5.70;96.60;;;;;;5118003;28;20418;-40
2022/02/06 14:12:10;;;;;;;2.43;0.93;;;5.60;97.40;;;;;;5113585;28;20481;-39
2022/02/06 14:14:57;;;;;;;1.00;0.60;;;5.60;97.60;;;;;;5117061;28;20445;-40
2022/02/06 14:17:38;;;;;;;1.37;0.60;;;5.60;97.60;;;;;;5118418;28;20421;-40
2022/02/06 14:20:24;;;;;;;1.57;0.93;;;5.50;98.10;;;;;;5098927;28;20429;-39
2022/02/06 14:22:55;;;;;;;1.73;0.60;;;5.40;98.20;;;;;;5100458;28;20502;-40
2022/02/06 14:25:36;;;;;;;2.70;1.43;;;5.40;97.90;;;;;;5082583;28;20468;-41
2022/02/06 14:28:24;;;;;;;2.20;1.40;;;5.30;98.30;;;;;;5100493;28;20417;-38
2022/02/06 14:30:50;;;;;;;1.20;0.70;;;5.30;98.90;;;;;;5096987;28;20516;-41
2022/02/06 14:33:27;;;;;;;2.43;0.80;;;5.30;98.90;;;;;;5116924;28;20823;-39
2022/02/06 14:36:04;;;;;;;1.33;0.73;;;5.30;99.00;;;;;;5101294;28;20437;-39
2022/02/06 14:38:42;;;;;;;1.70;0.70;;;5.20;98.80;;;;;;5119664;28;20437;-40
2022/02/06 14:43:52;;;;;;;1.83;0.77;;;5.20;99.10;;;;;;5120724;28;20437;-41
2022/02/06 14:46:18;;;;;;;0.83;0.50;;;5.20;99.30;;;;;;5120244;28;20425;-39
2022/02/06 14:48:44;;;;;;;1.83;0.70;;;5.20;99.40;;;;;;5102990;28;20520;-40
2022/02/06 14:51:13;;;;;;;1.47;1.17;;;5.10;99.50;;;;;;5120834;28;20469;-39
2022/02/06 14:53:39;;;;;;;1.90;0.80;;;5.10;99.90;;;;;;5102198;28;20439;-40
2022/02/06 14:56:08;;;;;;;1.30;0.90;;;5.10;99.90;;;;;;5120959;28;20401;-39
2022/02/06 14:58:34;;;;;;;2.10;0.70;;;5.00;99.90;;;;;;5100882;28;20815;-39
2022/02/06 15:00:59;;;;;;;1.43;0.53;;;5.00;99.90;;;;;;5121023;28;20436;-39
2022/02/06 15:03:25;;;;;;;1.17;0.70;;;5.00;99.90;;;;;;5100342;28;20199;-38
2022/02/06 15:05:51;;;;;;;1.30;0.80;;;4.90;99.90;;;;;;5120726;28;20168;-39
2022/02/06 15:08:18;;;;;;;1.57;0.70;;;4.90;99.90;;;;;;5117916;28;20167;-37
2022/02/06 15:10:44;;;;;;;1.00;0.70;;;4.90;99.90;;;;;;5118808;28;20429;-39
2022/02/06 15:13:10;;;;;;;1.10;0.80;;;4.80;99.90;;;;;;5116895;28;20546;-39
2022/02/06 15:15:44;;;;;;;1.67;0.77;;;4.80;99.90;;;;;;5119265;28;20680;-40
2022/02/06 15:20:54;;;;;;;1.83;0.90;;;4.70;99.90;;;;;;5119345;28;20409;-38
2022/02/06 15:23:22;;;;;;;1.37;0.60;;;4.70;99.90;;;;;;5118345;28;20426;-39
2022/02/06 15:25:48;;;;;;;1.53;0.70;;;4.70;99.90;;;;;;5119539;28;20857;-38
2022/02/06 15:28:13;;;;;;;1.33;0.60;;;4.70;99.90;;;;;;5098916;28;20455;-38
2022/02/06 15:30:44;;;;;;;1.17;0.67;;;4.60;99.90;;;;;;5117219;28;20176;-39
2022/02/06 15:33:10;;;;;;;1.30;0.77;;;4.60;99.90;;;;;;5117064;28;20469;-39
2022/02/06 15:35:36;;;;;;;1.30;0.60;;;4.60;99.90;;;;;;5119930;28;20509;-38
2022/02/06 15:38:03;;;;;;;1.10;0.77;;;4.60;99.90;;;;;;5117774;28;20418;-38
2022/02/06 15:40:30;;;;;;;1.53;0.83;;;4.50;99.90;;;;;;5085185;28;20422;-39
2022/02/06 15:42:56;;;;;;;2.27;1.00;;;4.60;99.90;;;;;;5100503;28;20537;-38
2022/02/06 15:45:21;;;;;;;1.53;0.70;;;4.60;99.90;;;;;;5119103;28;20875;-42
2022/02/06 15:47:47;;;;;;;1.10;0.60;;;4.60;99.90;;;;;;5118021;28;20188;-38
2022/02/06 15:50:13;;;;;;;1.97;0.73;;;4.50;99.90;;;;;;5119180;28;20275;-38